Time;durP1;ratioP1;P1;durP2;ratioP2;P2;SDS_P1;SDS_P2;PMS_P1;PMS_P2;Temp;Humidity;BMP_temperature;BMP_pressure;BME280_temperature;BME280_humidity;BME280_pressure;Samples;Min_cycle;Max_cycle;Signal;HPM_P1;HPM_P2
2022/06/29 00:04:28;;;;;;;13.00;11.80;;;;;;;21.93;71.57;100798.78;3452222;80;21053;-75
2022/06/29 00:09:19;;;;;;;13.75;12.45;;;;;;;21.82;71.57;100795.12;3434248;81;20943;-75
2022/06/29 00:14:10;;;;;;;13.35;11.95;;;;;;;21.74;71.72;100782.58;3442579;81;21010;-75
2022/06/29 00:19:06;;;;;;;11.48;10.48;;;;;;;21.72;71.97;100771.17;3438205;79;21019;-75
2022/06/29 00:23:55;;;;;;;13.78;12.37;;;;;;;21.68;72.23;100773.90;3459898;79;22089;-75
2022/06/29 00:28:46;;;;;;;12.60;11.55;;;;;;;21.63;72.28;100779.77;3493432;80;20978;-75
2022/06/29 00:33:37;;;;;;;14.73;13.38;;;;;;;21.63;72.45;100782.41;3414030;80;21459;-75
2022/06/29 00:38:29;;;;;;;14.23;12.75;;;;;;;21.62;72.56;100794.36;3469428;79;21217;-75
2022/06/29 00:43:20;;;;;;;13.22;12.20;;;;;;;21.60;72.91;100794.39;3409307;79;21406;-75
2022/06/29 00:48:11;;;;;;;14.15;13.05;;;;;;;21.56;72.92;100786.14;3475827;79;21178;-75
2022/06/29 00:53:05;;;;;;;14.65;13.18;;;;;;;21.54;73.16;100793.72;3458249;79;21467;-75
2022/06/29 00:58:00;;;;;;;15.70;14.15;;;;;;;21.50;73.11;100777.06;3494301;79;20998;-75
2022/06/29 01:02:51;;;;;;;13.95;12.82;;;;;;;21.45;73.33;100766.59;3471778;79;20950;-75
2022/06/29 01:07:44;;;;;;;21.10;13.08;;;;;;;21.43;73.39;100756.95;3473057;80;21039;-75
2022/06/29 01:12:35;;;;;;;14.45;13.18;;;;;;;21.42;73.50;100737.55;3483719;79;20938;-75
2022/06/29 01:17:27;;;;;;;14.58;13.38;;;;;;;21.47;73.65;100722.45;3448285;79;38795;-75
2022/06/29 01:22:22;;;;;;;13.80;12.70;;;;;;;21.48;73.59;100727.28;3506154;79;21192;-75
2022/06/29 01:27:16;;;;;;;14.78;13.38;;;;;;;21.50;73.57;100724.16;3507648;79;21035;-75
2022/06/29 01:32:08;;;;;;;13.98;12.78;;;;;;;21.51;73.71;100713.98;3503518;79;21607;-75
2022/06/29 01:37:01;;;;;;;15.88;12.18;;;;;;;21.49;73.77;100719.77;3450577;79;21398;-75
2022/06/29 01:41:52;;;;;;;14.47;13.32;;;;;;;21.40;73.71;100712.06;3515284;79;21509;-75
2022/06/29 01:46:43;;;;;;;14.78;13.32;;;;;;;21.32;73.79;100699.92;3526983;79;21354;-75
2022/06/29 01:51:35;;;;;;;14.38;13.08;;;;;;;21.26;73.81;100692.14;3505565;79;21378;-75
2022/06/29 01:56:26;;;;;;;13.38;12.23;;;;;;;21.20;73.85;100683.54;3478563;79;20971;-75
2022/06/29 02:01:17;;;;;;;15.28;14.07;;;;;;;21.12;73.94;100683.73;3505254;79;20999;-75
2022/06/29 02:06:08;;;;;;;14.10;12.80;;;;;;;21.05;74.11;100680.84;3529014;79;20928;-75
2022/06/29 02:11:00;;;;;;;14.40;13.13;;;;;;;20.98;74.24;100685.88;3502004;79;21072;-75
2022/06/29 02:15:52;;;;;;;13.28;12.23;;;;;;;20.92;74.39;100682.48;3559511;79;20919;-75
2022/06/29 02:20:43;;;;;;;13.50;12.20;;;;;;;20.86;74.37;100687.09;3527444;79;20947;-75
2022/06/29 02:25:34;;;;;;;12.40;11.30;;;;;;;20.76;74.51;100690.41;3523095;79;20995;-75
2022/06/29 02:35:35;;;;;;;13.05;11.95;;;;;;;20.66;74.68;100691.57;3477313;79;21875;-75
2022/06/29 02:40:26;;;;;;;13.62;12.50;;;;;;;20.65;74.70;100689.82;3461733;79;21010;-75
2022/06/29 02:45:17;;;;;;;12.10;11.10;;;;;;;20.64;74.78;100693.35;3426849;79;20956;-75
2022/06/29 02:50:09;;;;;;;12.82;11.65;;;;;;;20.59;74.54;100700.52;3444525;80;20969;-75
2022/06/29 02:55:03;;;;;;;12.28;11.25;;;;;;;20.55;74.74;100701.05;3463423;80;21014;-75
2022/06/29 02:59:55;;;;;;;14.03;12.93;;;;;;;20.48;74.81;100697.68;3444163;79;21481;-75
2022/06/29 03:04:46;;;;;;;12.23;11.10;;;;;;;20.53;75.02;100697.13;3494131;80;20971;-74
2022/06/29 03:09:37;;;;;;;14.35;13.05;;;;;;;20.57;75.21;100693.48;3462223;79;20986;-75
2022/06/29 03:14:28;;;;;;;15.20;13.83;;;;;;;20.66;74.97;100691.57;3462835;79;20971;-75
2022/06/29 03:19:19;;;;;;;14.13;12.78;;;;;;;20.81;74.87;100692.48;3484911;79;20955;-75
2022/06/29 03:24:10;;;;;;;13.83;12.73;;;;;;;20.82;74.78;100691.59;3397194;79;21461;-75
2022/06/29 03:29:01;;;;;;;14.43;13.13;;;;;;;20.79;74.74;100683.73;3425806;79;21014;-75
2022/06/29 03:33:53;;;;;;;15.63;14.05;;;;;;;20.83;74.80;100693.30;3404942;79;21516;-76
2022/06/29 03:38:44;;;;;;;15.53;14.23;;;;;;;20.80;74.69;100696.05;3445345;79;20936;-75
2022/06/29 03:43:35;;;;;;;15.00;13.62;;;;;;;20.80;74.77;100692.52;3449856;79;20929;-75
2022/06/29 03:48:26;;;;;;;15.40;14.10;;;;;;;20.82;74.83;100686.30;3497033;79;20981;-76
2022/06/29 03:53:17;;;;;;;18.25;16.52;;;;;;;20.91;75.02;100687.84;3478769;80;21643;-75
2022/06/29 03:58:08;;;;;;;20.35;18.55;;;;;;;20.97;74.82;100688.13;3426053;80;21023;-75
2022/06/29 04:02:59;;;;;;;22.77;20.77;;;;;;;21.02;74.84;100680.95;3478029;79;21414;-75
2022/06/29 04:07:50;;;;;;;21.25;19.35;;;;;;;20.99;74.71;100687.63;3431310;79;20956;-75
2022/06/29 04:12:42;;;;;;;19.42;17.52;;;;;;;21.01;74.75;100684.48;3479277;79;20948;-76
2022/06/29 04:17:33;;;;;;;20.40;18.60;;;;;;;21.05;74.59;100676.88;3448024;79;21427;-75
2022/06/29 04:22:25;;;;;;;21.95;20.02;;;;;;;21.17;74.44;100675.69;3435958;79;21090;-75
2022/06/29 04:27:17;;;;;;;22.02;19.60;;;;;;;21.25;74.34;100668.42;3435744;79;20924;-75
2022/06/29 04:32:10;;;;;;;21.80;19.98;;;;;;;21.32;74.09;100662.91;3442495;79;21482;-75
2022/06/29 04:37:02;;;;;;;20.62;18.82;;;;;;;21.33;74.16;100654.51;3431151;79;22080;-75
2022/06/29 04:41:53;;;;;;;19.35;17.48;;;;;;;21.44;73.85;100658.16;3417917;79;21565;-75
2022/06/29 04:46:45;;;;;;;19.48;17.67;;;;;;;21.46;73.80;100660.34;3480155;80;20999;-76
2022/06/29 04:51:36;;;;;;;18.12;16.55;;;;;;;21.49;73.64;100669.52;3464191;80;21055;-75
2022/06/29 04:56:32;;;;;;;19.42;17.73;;;;;;;21.52;73.58;100680.02;3517440;79;20963;-75
2022/06/29 05:01:26;;;;;;;18.05;16.48;;;;;;;21.54;73.61;100662.78;3466783;80;21903;-75
2022/06/29 05:06:17;;;;;;;18.65;16.90;;;;;;;21.54;73.59;100670.25;3439099;80;20926;-76
2022/06/29 05:11:09;;;;;;;21.48;19.50;;;;;;;21.54;73.26;100675.54;3424908;79;20954;-75
2022/06/29 05:16:01;;;;;;;20.57;18.60;;;;;;;21.50;73.32;100672.12;3516066;79;21513;-75
2022/06/29 05:20:53;;;;;;;19.00;17.17;;;;;;;21.45;73.58;100673.13;3432905;79;20963;-75
2022/06/29 05:25:44;;;;;;;22.55;20.52;;;;;;;21.41;73.70;100674.11;3498246;79;22744;-75
2022/06/29 05:30:35;;;;;;;21.77;19.73;;;;;;;21.43;73.68;100677.61;3485688;79;20939;-75
2022/06/29 05:35:29;;;;;;;20.40;18.60;;;;;;;21.44;73.69;100687.26;3481926;79;20947;-75
2022/06/29 05:40:19;;;;;;;21.02;19.07;;;;;;;21.44;73.82;100689.91;3482769;79;20966;-75
2022/06/29 05:45:10;;;;;;;24.05;21.75;;;;;;;21.35;73.75;100690.17;3461826;79;20923;-75
2022/06/29 05:50:01;;;;;;;20.68;18.75;;;;;;;21.35;73.80;100699.42;3474474;79;21011;-75
2022/06/29 05:54:53;;;;;;;22.10;19.57;;;;;;;21.40;73.78;100693.09;3475604;79;21002;-75
2022/06/29 05:59:44;;;;;;;21.77;19.80;;;;;;;21.48;73.56;100684.95;3487180;79;21012;-75
2022/06/29 06:04:35;;;;;;;22.37;20.33;;;;;;;21.52;73.46;100682.66;3504142;79;20939;-75
2022/06/29 06:09:27;;;;;;;21.87;19.57;;;;;;;21.43;73.54;100685.55;3438363;79;20999;-75
2022/06/29 06:14:18;;;;;;;19.87;18.10;;;;;;;21.53;73.61;100690.12;3454649;79;22229;-75
2022/06/29 06:19:09;;;;;;;21.10;18.87;;;;;;;21.53;73.56;100692.31;3478372;81;20998;-75
2022/06/29 06:24:00;;;;;;;22.35;20.12;;;;;;;21.54;73.36;100701.14;3479312;79;21488;-75
2022/06/29 06:28:52;;;;;;;24.30;18.73;;;;;;;21.53;73.52;100694.95;3438034;79;21674;-75
2022/06/29 06:33:43;;;;;;;20.80;18.90;;;;;;;21.53;73.56;100705.53;3495680;79;20931;-75
2022/06/29 06:38:34;;;;;;;20.43;18.52;;;;;;;21.51;73.54;100707.36;3398164;81;21049;-75
2022/06/29 06:43:25;;;;;;;19.87;18.17;;;;;;;21.43;73.72;100704.91;3391475;81;20994;-74
2022/06/29 06:48:16;;;;;;;21.02;18.90;;;;;;;21.41;73.89;100701.45;3303630;82;20990;-74
2022/06/29 06:53:07;;;;;;;23.22;21.07;;;;;;;21.42;73.80;100706.27;3347918;82;20939;-75
2022/06/29 06:57:59;;;;;;;24.57;20.50;;;;;;;21.53;73.72;100705.53;3393661;83;21195;-74
2022/06/29 07:02:50;;;;;;;21.80;19.82;;;;;;;21.63;73.76;100709.66;3371880;81;21009;-74
2022/06/29 07:07:41;;;;;;;19.95;18.05;;;;;;;21.75;73.53;100708.45;3362774;81;21083;-75
2022/06/29 07:12:32;;;;;;;21.60;19.75;;;;;;;21.93;73.15;100712.32;3415064;81;21022;-74
2022/06/29 07:17:24;;;;;;;19.27;17.45;;;;;;;22.06;72.98;100724.25;3419190;81;21034;-76
2022/06/29 07:22:15;;;;;;;17.40;15.60;;;;;;;22.12;72.45;100718.36;3376015;81;21296;-75
2022/06/29 07:27:07;;;;;;;19.30;17.40;;;;;;;22.11;72.75;100720.62;3406488;81;20998;-75
2022/06/29 07:31:58;;;;;;;21.40;19.25;;;;;;;22.19;72.70;100719.44;3404217;81;21500;-76
2022/06/29 07:36:49;;;;;;;17.67;15.58;;;;;;;22.27;72.44;100716.61;3496688;78;21006;-77
2022/06/29 07:41:41;;;;;;;16.40;15.08;;;;;;;22.33;72.22;100715.08;3529054;78;20970;-76
2022/06/29 07:46:32;;;;;;;16.42;14.95;;;;;;;22.25;72.12;100710.47;3471295;78;21001;-76
2022/06/29 07:51:23;;;;;;;18.55;15.00;;;;;;;22.06;72.12;100708.84;3470205;79;21521;-74
2022/06/29 07:56:15;;;;;;;16.55;15.13;;;;;;;21.93;72.47;100715.40;3511625;79;21074;-75
2022/06/29 08:01:06;;;;;;;15.00;13.80;;;;;;;22.03;72.26;100716.39;3461783;79;20926;-76
2022/06/29 08:05:59;;;;;;;16.52;15.05;;;;;;;22.39;71.87;100714.00;3510340;79;20997;-75
2022/06/29 08:10:50;;;;;;;18.48;16.62;;;;;;;22.61;71.04;100720.82;3453895;79;21623;-74
2022/06/29 08:15:43;;;;;;;17.07;15.50;;;;;;;22.93;70.72;100710.89;3430529;79;21281;-74
2022/06/29 08:20:34;;;;;;;15.48;14.07;;;;;;;23.31;69.91;100700.77;3444433;80;21037;-74
2022/06/29 08:25:25;;;;;;;14.87;13.58;;;;;;;23.41;69.41;100706.12;3493017;79;20969;-74
2022/06/29 08:30:17;;;;;;;17.00;15.63;;;;;;;23.42;69.34;100711.84;3475215;79;20971;-72
2022/06/29 08:35:10;;;;;;;16.70;15.18;;;;;;;23.47;69.04;100709.89;3518380;79;20990;-74
2022/06/29 08:40:01;;;;;;;18.52;16.82;;;;;;;23.45;68.82;100705.11;3454229;79;21880;-74
2022/06/29 08:44:53;;;;;;;16.23;14.73;;;;;;;23.41;68.80;100699.48;3526102;79;21101;-73
2022/06/29 08:49:44;;;;;;;16.50;14.98;;;;;;;23.55;68.52;100702.97;3506535;79;20970;-73
2022/06/29 08:54:39;;;;;;;17.77;16.30;;;;;;;23.79;68.17;100691.90;3471625;79;21013;-74
2022/06/29 08:59:33;;;;;;;15.85;14.45;;;;;;;23.75;68.02;100691.16;3521705;79;21456;-73
2022/06/29 09:04:24;;;;;;;15.03;13.65;;;;;;;24.10;67.05;100688.07;3477004;79;21264;-74
2022/06/29 09:09:15;;;;;;;13.58;12.58;;;;;;;24.80;65.86;100672.82;3529448;79;20940;-74
2022/06/29 09:14:19;;;;;;;13.00;12.03;;;;;;;25.45;65.74;100677.05;3529541;79;21477;-73
2022/06/29 09:19:10;;;;;;;10.85;9.95;;;;;;;25.33;64.77;100682.93;3462343;79;21571;-74
2022/06/29 09:24:01;;;;;;;13.28;12.20;;;;;;;25.29;64.76;100677.36;3503004;79;20938;-75
2022/06/29 09:28:53;;;;;;;11.73;10.53;;;;;;;25.33;64.11;100682.93;3500204;79;22303;-75
2022/06/29 09:33:45;;;;;;;11.88;10.88;;;;;;;25.57;63.77;100688.91;3433068;79;20991;-74
2022/06/29 09:38:37;;;;;;;12.33;11.33;;;;;;;26.06;62.69;100688.45;3460730;80;21476;-75
2022/06/29 09:43:31;;;;;;;11.78;10.88;;;;;;;27.96;60.16;100679.55;3446732;79;20974;-74
2022/06/29 09:48:26;;;;;;;11.65;10.72;;;;;;;29.41;58.89;100684.41;3458759;79;20966;-76
2022/06/29 09:53:21;;;;;;;11.00;10.10;;;;;;;28.96;58.14;100680.91;3487474;80;21131;-75
2022/06/29 09:58:16;;;;;;;10.30;9.45;;;;;;;28.93;57.39;100678.41;3513419;80;21222;-76
2022/06/29 10:03:11;;;;;;;11.03;10.20;;;;;;;31.59;53.49;100662.77;3497082;79;20926;-75
2022/06/29 10:08:02;;;;;;;10.23;9.43;;;;;;;30.92;53.40;100671.90;3470714;79;20974;-75
2022/06/29 10:18:58;;;;;;;10.27;9.37;;;;;;;29.68;53.86;100688.98;3513995;79;22058;-75
2022/06/29 10:23:54;;;;;;;11.18;9.65;;;;;;;30.16;53.58;100678.75;3458058;80;21036;-76
2022/06/29 10:28:45;;;;;;;10.88;9.80;;;;;;;30.07;52.87;100690.09;3409590;79;21025;-76
2022/06/29 10:33:37;;;;;;;10.40;9.70;;;;;;;29.59;53.43;100693.95;3450082;79;20987;-77
2022/06/29 10:38:28;;;;;;;11.48;10.68;;;;;;;29.02;53.72;100689.89;3441866;80;20928;-76
2022/06/29 10:43:20;;;;;;;10.72;9.83;;;;;;;28.81;54.29;100684.87;3452106;80;21250;-76
2022/06/29 10:48:14;;;;;;;11.00;10.20;;;;;;;28.97;53.26;100690.64;3473259;79;21542;-76
2022/06/29 10:53:12;;;;;;;12.35;11.10;;;;;;;29.15;53.94;100681.52;3448764;79;21070;-74
2022/06/29 10:58:04;;;;;;;11.03;10.13;;;;;;;30.04;52.60;100682.60;3465421;79;21549;-75
2022/06/29 11:02:55;;;;;;;11.90;10.85;;;;;;;31.48;51.00;100669.77;3432204;79;20964;-75
2022/06/29 11:13:00;;;;;;;10.90;9.98;;;;;;;31.69;50.63;100666.48;3491572;79;21010;-75
2022/06/29 11:17:51;;;;;;;10.70;9.75;;;;;;;30.84;51.06;100664.84;3431443;80;20951;-75
2022/06/29 11:22:50;;;;;;;12.07;10.85;;;;;;;30.51;50.62;100664.83;3513811;79;20983;-75
2022/06/29 11:27:41;;;;;;;10.08;9.38;;;;;;;29.98;50.88;100663.41;3455510;79;21426;-75
2022/06/29 11:32:49;;;;;;;11.18;10.08;;;;;;;30.08;51.26;100660.47;3490348;79;21637;-75
2022/06/29 11:37:53;;;;;;;11.22;10.53;;;;;;;30.03;52.20;100652.75;3434923;79;20956;-75
2022/06/29 11:47:55;;;;;;;11.88;10.80;;;;;;;30.54;51.13;100632.44;3465342;79;21011;-76
2022/06/29 11:52:50;;;;;;;11.35;10.45;;;;;;;30.43;49.67;100637.19;3469035;79;22280;-75
2022/06/29 11:57:42;;;;;;;11.33;10.45;;;;;;;29.96;51.16;100623.75;3422833;79;22294;-74
2022/06/29 12:02:36;;;;;;;10.88;9.80;;;;;;;29.97;50.49;100620.13;3472806;79;21047;-74
2022/06/29 12:07:29;;;;;;;9.53;8.83;;;;;;;30.37;49.90;100614.33;3480110;80;21003;-74
2022/06/29 12:12:20;;;;;;;10.18;9.18;;;;;;;30.67;51.03;100606.47;3452565;78;21007;-74
2022/06/29 12:17:13;;;;;;;10.38;9.38;;;;;;;30.94;49.63;100603.73;3402652;80;21742;-74
2022/06/29 12:22:05;;;;;;;9.73;8.83;;;;;;;30.90;49.14;100593.28;3457745;79;22789;-76
2022/06/29 12:26:56;;;;;;;10.13;9.35;;;;;;;30.90;49.95;100578.52;3477809;79;20954;-76
2022/06/29 12:31:48;;;;;;;9.75;8.90;;;;;;;30.84;49.70;100580.31;3451531;79;21499;-75
2022/06/29 12:36:41;;;;;;;9.35;8.65;;;;;;;30.90;48.65;100573.15;3481876;79;20908;-76
2022/06/29 12:41:38;;;;;;;9.55;8.63;;;;;;;30.89;48.51;100576.33;3425299;79;21002;-75
2022/06/29 12:46:30;;;;;;;9.13;8.30;;;;;;;30.98;48.52;100568.14;3464710;79;21189;-75
2022/06/29 12:51:21;;;;;;;8.70;8.10;;;;;;;31.04;48.64;100565.50;3425099;79;21540;-75
2022/06/29 12:56:12;;;;;;;10.28;9.38;;;;;;;31.19;48.68;100563.03;3484920;79;20943;-75
2022/06/29 13:01:04;;;;;;;9.30;8.48;;;;;;;31.28;48.63;100554.80;3464102;79;20958;-75
2022/06/29 13:05:55;;;;;;;9.25;8.43;;;;;;;31.25;47.67;100544.30;3476009;79;20979;-76
2022/06/29 13:10:46;;;;;;;10.03;9.23;;;;;;;31.31;48.65;100537.12;3484192;79;21116;-76
2022/06/29 13:15:38;;;;;;;9.70;8.73;;;;;;;31.28;47.41;100527.48;3398926;79;21034;-74
2022/06/29 13:20:29;;;;;;;9.45;8.75;;;;;;;31.32;47.37;100518.72;3480127;79;21034;-71
2022/06/29 13:25:21;;;;;;;10.20;9.20;;;;;;;31.46;47.26;100521.23;3497689;79;21603;-72
2022/06/29 13:30:13;;;;;;;9.63;8.50;;;;;;;31.44;46.89;100531.70;3482956;79;21030;-72
2022/06/29 13:35:09;;;;;;;9.35;8.23;;;;;;;31.43;48.05;100525.98;3430421;79;21792;-72
2022/06/29 13:39:59;;;;;;;;;;;;;;;31.46;47.07;100529.30;3419356;79;20963;-71
2022/06/29 13:44:53;;;;;;;10.68;7.90;;;;;;;31.29;46.36;100532.36;3504528;79;20187;-75
2022/06/29 13:49:44;;;;;;;8.78;7.95;;;;;;;31.28;47.00;100519.42;3514477;79;20982;-73
2022/06/29 13:54:35;;;;;;;7.85;7.25;;;;;;;31.36;46.57;100508.11;3442072;81;21528;-72
2022/06/29 13:59:26;;;;;;;9.38;8.68;;;;;;;31.44;46.28;100508.88;3376854;82;21435;-72
2022/06/29 14:04:18;;;;;;;8.45;7.72;;;;;;;31.41;46.21;100508.63;3472303;81;21065;-73
2022/06/29 14:09:09;;;;;;;8.55;7.95;;;;;;;31.47;46.42;100503.28;3418241;81;20971;-72
2022/06/29 14:14:04;;;;;;;8.85;8.05;;;;;;;31.48;45.92;100505.89;3404619;82;20998;-73
2022/06/29 14:18:55;;;;;;;8.13;7.53;;;;;;;31.45;45.57;100495.33;3434685;80;21481;-72
2022/06/29 14:23:48;;;;;;;8.33;7.37;;;;;;;31.56;46.01;100489.19;3359879;81;21185;-73
2022/06/29 14:28:39;;;;;;;8.85;7.87;;;;;;;31.67;45.71;100485.69;3390405;81;20991;-73
2022/06/29 14:33:31;;;;;;;9.05;8.23;;;;;;;31.70;45.01;100487.66;3390986;81;21040;-72
2022/06/29 14:38:22;;;;;;;8.18;7.47;;;;;;;31.58;44.46;100491.77;3420640;80;21490;-73
2022/06/29 14:43:14;;;;;;;8.70;7.90;;;;;;;31.51;44.12;100492.20;3486797;79;20973;-73
2022/06/29 14:48:07;;;;;;;7.90;7.20;;;;;;;31.38;45.35;100492.73;3440314;80;21627;-72
2022/06/29 14:52:59;;;;;;;7.65;6.83;;;;;;;31.42;44.73;100495.55;3420201;79;20998;-73
2022/06/29 14:57:50;;;;;;;7.87;7.37;;;;;;;31.53;44.30;100484.92;3489024;79;21017;-72
2022/06/29 15:02:42;;;;;;;8.40;7.80;;;;;;;31.48;44.61;100483.48;3460681;79;20892;-72
2022/06/29 15:07:33;;;;;;;7.72;7.03;;;;;;;31.56;44.54;100473.07;3505268;79;20978;-71
2022/06/29 15:12:24;;;;;;;9.28;7.12;;;;;;;31.47;44.38;100463.83;3505990;79;21001;-73
2022/06/29 15:17:17;;;;;;;8.20;7.40;;;;;;;31.40;44.80;100466.61;3488387;79;20996;-72
2022/06/29 15:22:09;;;;;;;7.70;7.20;;;;;;;31.32;44.38;100460.97;3500374;79;21388;-73
2022/06/29 15:27:01;;;;;;;8.33;6.97;;;;;;;31.18;44.05;100462.48;3485365;79;21065;-73
2022/06/29 15:31:57;;;;;;;8.15;7.42;;;;;;;31.16;44.43;100466.61;3500883;79;20983;-73
2022/06/29 15:41:55;;;;;;;8.40;6.53;;;;;;;31.02;44.85;100463.59;3443147;79;21569;-75
2022/06/29 15:46:46;;;;;;;7.42;6.83;;;;;;;30.75;44.43;100471.30;3400190;79;20975;-77
2022/06/29 15:51:38;;;;;;;7.47;6.85;;;;;;;30.66;44.59;100465.74;3427038;80;21605;-75
2022/06/29 15:56:29;;;;;;;7.72;7.17;;;;;;;30.59;44.38;100463.97;3407828;80;20991;-74
2022/06/29 16:01:20;;;;;;;7.20;6.70;;;;;;;30.63;44.81;100454.73;3478610;79;21937;-77
2022/06/29 16:06:11;;;;;;;13.60;8.33;;;;;;;30.53;44.59;100459.03;3434677;80;21031;-77
2022/06/29 16:11:02;;;;;;;7.87;7.28;;;;;;;30.36;45.31;100444.14;3456412;79;20967;-77
2022/06/29 16:15:54;;;;;;;7.78;7.08;;;;;;;30.26;45.38;100445.22;3466652;79;21621;-76
2022/06/29 16:20:45;;;;;;;7.22;6.72;;;;;;;30.16;45.55;100438.81;3442855;79;21019;-77
2022/06/29 16:25:36;;;;;;;7.42;6.87;;;;;;;30.09;45.91;100437.52;3470976;79;20942;-76
2022/06/29 16:30:27;;;;;;;6.78;6.25;;;;;;;29.94;46.36;100432.72;3451017;79;20991;-77
2022/06/29 16:35:19;;;;;;;6.83;6.33;;;;;;;29.91;45.87;100420.89;3432587;79;21013;-76
2022/06/29 16:40:12;;;;;;;7.08;6.58;;;;;;;29.75;46.54;100409.87;3472813;79;21387;-77
2022/06/29 16:45:04;;;;;;;8.05;6.67;;;;;;;29.62;46.82;100411.16;3384141;79;20916;-76
2022/06/29 16:49:56;;;;;;;7.50;6.70;;;;;;;29.54;46.91;100402.77;3465878;80;21088;-76
2022/06/29 16:54:48;;;;;;;6.62;6.12;;;;;;;29.32;47.11;100409.22;3466492;80;20983;-76
2022/06/29 16:59:39;;;;;;;8.95;6.80;;;;;;;29.14;47.20;100410.77;3474394;79;22143;-76
2022/06/29 17:04:31;;;;;;;7.12;6.62;;;;;;;28.97;47.37;100415.02;3417771;80;20909;-76
2022/06/29 17:09:22;;;;;;;7.40;6.70;;;;;;;28.84;47.70;100414.47;3439274;79;20964;-76
2022/06/29 17:14:13;;;;;;;8.98;6.62;;;;;;;28.70;47.99;100422.03;3414582;79;21069;-76
2022/06/29 17:19:04;;;;;;;6.78;6.28;;;;;;;28.58;48.13;100412.59;3454110;79;20990;-76
2022/06/29 17:23:55;;;;;;;7.55;6.72;;;;;;;28.50;48.56;100415.73;3408255;79;20961;-76
2022/06/29 17:28:46;;;;;;;7.12;6.53;;;;;;;28.34;48.64;100422.51;3442883;79;20976;-77
2022/06/29 17:33:37;;;;;;;7.87;6.65;;;;;;;28.23;49.00;100425.84;3410445;79;21088;-77
2022/06/29 17:38:29;;;;;;;7.57;6.97;;;;;;;28.10;49.17;100424.89;3468309;79;20897;-77
2022/06/29 17:43:20;;;;;;;6.30;5.70;;;;;;;27.95;49.18;100434.68;3408438;79;21007;-77
2022/06/29 17:48:12;;;;;;;6.08;5.58;;;;;;;27.81;49.64;100442.62;3419096;80;20953;-77
2022/06/29 17:53:03;;;;;;;6.37;5.95;;;;;;;27.65;49.46;100439.55;3460264;80;20968;-77
2022/06/29 17:57:54;;;;;;;5.53;4.92;;;;;;;27.48;49.56;100443.19;3414849;80;20928;-77
2022/06/29 18:02:45;;;;;;;5.90;5.00;;;;;;;27.33;49.80;100448.06;3400381;80;21608;-76
2022/06/29 18:07:37;;;;;;;10.23;8.95;;;;;;;27.18;50.46;100453.78;3437410;79;20956;-76
2022/06/29 18:12:28;;;;;;;5.45;5.05;;;;;;;26.98;50.48;100454.42;3401944;79;20946;-76
2022/06/29 18:17:19;;;;;;;12.50;9.45;;;;;;;26.81;50.84;100447.83;3483338;79;20940;-76
2022/06/29 18:22:10;;;;;;;24.45;14.98;;;;;;;26.66;51.74;100448.69;3478984;79;20944;-76
2022/06/29 18:27:02;;;;;;;9.83;7.53;;;;;;;26.48;52.17;100450.03;3438376;79;21684;-76
2022/06/29 18:31:53;;;;;;;6.22;5.72;;;;;;;26.32;52.55;100449.98;3451182;78;20954;-76
2022/06/29 18:36:46;;;;;;;22.87;16.48;;;;;;;26.20;52.71;100464.83;3408483;79;21501;-76
2022/06/29 18:41:37;;;;;;;17.80;14.25;;;;;;;26.04;53.51;100459.44;3474185;79;20955;-77
2022/06/29 18:46:28;;;;;;;20.55;14.87;;;;;;;25.86;53.86;100451.89;3456790;80;20952;-76
2022/06/29 18:51:20;;;;;;;9.65;8.68;;;;;;;25.68;54.14;100470.98;3395158;80;20967;-76
2022/06/29 18:56:11;;;;;;;8.43;7.05;;;;;;;25.53;54.67;100494.84;3440315;79;20984;-76
2022/06/29 19:01:05;;;;;;;7.78;7.17;;;;;;;25.33;55.15;100501.98;3418366;80;21477;-76
2022/06/29 19:05:57;;;;;;;12.13;10.80;;;;;;;25.20;55.78;100498.14;3463597;79;21034;-76
2022/06/29 19:10:49;;;;;;;10.82;9.83;;;;;;;25.04;56.08;100499.32;3444574;79;20952;-76
2022/06/29 19:15:41;;;;;;;11.63;8.55;;;;;;;24.90;56.75;100499.98;3401324;79;20998;-76
2022/06/29 19:20:32;;;;;;;12.37;10.43;;;;;;;24.79;57.00;100496.94;3439086;79;20931;-76
2022/06/29 19:25:24;;;;;;;11.80;10.55;;;;;;;24.63;57.49;100498.98;3459169;79;20952;-76
2022/06/29 19:30:15;;;;;;;9.90;9.00;;;;;;;24.50;57.59;100495.09;3461125;79;20948;-76
2022/06/29 19:35:09;;;;;;;11.18;8.50;;;;;;;24.44;57.94;100490.07;3425365;79;21442;-76
2022/06/29 19:40:00;;;;;;;14.90;13.10;;;;;;;24.41;58.19;100476.91;3439286;79;21593;-76
2022/06/29 19:44:52;;;;;;;11.93;8.95;;;;;;;24.37;58.41;100472.20;3447928;80;21012;-76
2022/06/29 19:49:44;;;;;;;14.25;7.67;;;;;;;24.26;58.65;100474.00;3409963;80;22267;-76
2022/06/29 19:54:35;;;;;;;14.85;9.45;;;;;;;24.16;58.90;100486.84;3476997;79;20940;-76
2022/06/29 19:59:27;;;;;;;9.75;8.18;;;;;;;24.04;59.85;100476.73;3422413;80;21517;-76
2022/06/29 20:04:18;;;;;;;9.58;8.68;;;;;;;23.92;59.76;100466.16;3401601;79;21055;-76
2022/06/29 20:09:09;;;;;;;8.38;7.67;;;;;;;23.76;60.07;100479.66;3454379;79;20955;-76
2022/06/29 20:14:01;;;;;;;8.73;7.92;;;;;;;23.66;60.58;100484.94;3480163;79;21521;-76
2022/06/29 20:18:52;;;;;;;8.48;7.80;;;;;;;23.58;60.92;100479.95;3454245;79;20964;-76
2022/06/29 20:23:45;;;;;;;8.58;7.78;;;;;;;23.54;60.95;100481.88;3425714;79;21458;-76
2022/06/29 20:28:36;;;;;;;9.45;8.55;;;;;;;23.53;61.30;100476.15;3443553;79;20971;-76
2022/06/29 20:33:28;;;;;;;8.70;8.00;;;;;;;23.49;61.36;100482.98;3414362;79;21449;-76
2022/06/29 20:38:19;;;;;;;9.33;8.43;;;;;;;23.39;61.63;100481.15;3438578;79;20975;-76
2022/06/29 20:43:10;;;;;;;13.58;9.20;;;;;;;23.34;61.73;100487.09;3478769;79;20921;-77
2022/06/29 20:48:03;;;;;;;10.65;8.90;;;;;;;23.28;62.16;100493.98;3489981;80;20992;-76
2022/06/29 20:52:54;;;;;;;16.17;9.38;;;;;;;23.19;62.37;100504.02;3382198;80;21169;-76
2022/06/29 20:57:48;;;;;;;9.70;7.87;;;;;;;23.03;62.50;100498.88;3436317;80;21517;-76
2022/06/29 21:02:42;;;;;;;14.55;9.25;;;;;;;22.92;63.05;100493.98;3471375;79;20917;-76
2022/06/29 21:07:34;;;;;;;10.20;9.15;;;;;;;22.79;63.16;100496.23;3453718;79;20949;-77
2022/06/29 21:12:28;;;;;;;13.28;10.38;;;;;;;22.67;63.38;100499.80;3457752;79;21477;-77
2022/06/29 21:17:19;;;;;;;12.98;9.73;;;;;;;22.54;63.84;100489.66;3484708;79;21031;-77
2022/06/29 21:22:10;;;;;;;11.53;10.08;;;;;;;22.47;64.17;100489.47;3395341;79;21501;-77
2022/06/29 21:27:01;;;;;;;10.95;9.68;;;;;;;22.38;64.35;100491.13;3448462;79;20955;-76
2022/06/29 21:31:52;;;;;;;12.35;10.63;;;;;;;22.28;64.56;100493.22;3421050;79;20972;-76
2022/06/29 21:36:44;;;;;;;10.88;9.13;;;;;;;22.20;64.70;100483.34;3430998;79;20967;-76
2022/06/29 21:41:35;;;;;;;10.53;9.53;;;;;;;22.14;65.07;100475.59;3436283;80;21030;-76
2022/06/29 21:46:26;;;;;;;9.95;8.90;;;;;;;22.05;65.36;100462.22;3440808;80;21468;-76
2022/06/29 21:51:18;;;;;;;12.98;10.38;;;;;;;21.96;65.18;100467.36;3477256;80;21003;-76
2022/06/29 21:56:10;;;;;;;11.28;10.18;;;;;;;21.80;65.54;100459.55;3488740;80;20935;-76
2022/06/29 22:01:02;;;;;;;11.05;9.93;;;;;;;21.75;65.94;100460.16;3438077;79;20947;-76
2022/06/29 22:05:53;;;;;;;11.10;9.98;;;;;;;21.72;65.96;100466.89;3479837;79;22004;-76
2022/06/29 22:10:45;;;;;;;11.05;9.95;;;;;;;21.61;66.32;100469.42;3422881;79;20935;-76
2022/06/29 22:15:36;;;;;;;11.80;10.58;;;;;;;21.53;66.58;100475.41;3450872;79;20916;-77
2022/06/29 22:20:29;;;;;;;11.83;10.70;;;;;;;21.45;66.57;100476.10;3455927;79;21279;-76
2022/06/29 22:25:23;;;;;;;11.48;10.43;;;;;;;21.43;67.06;100470.86;3425557;79;20951;-76
2022/06/29 22:30:14;;;;;;;10.88;9.85;;;;;;;21.44;67.40;100465.09;3413755;79;21216;-77
2022/06/29 22:35:06;;;;;;;11.38;10.48;;;;;;;21.37;67.09;100464.42;3467310;79;21643;-76
2022/06/29 22:39:57;;;;;;;11.55;10.55;;;;;;;21.30;67.35;100470.38;3434861;81;21491;-77
2022/06/29 22:44:49;;;;;;;11.60;10.50;;;;;;;21.26;67.53;100475.34;3372640;81;20995;-77